sensor_id;sensor_type;location;lat;lon;timestamp;temperature;humidity
1704;DHT22;849;48.780;9.216;2022-09-09T00:07:01;17.90;99.90
1704;DHT22;849;48.780;9.216;2022-09-09T00:09:34;18.00;99.90
1704;DHT22;849;48.780;9.216;2022-09-09T00:12:14;17.90;99.90
1704;DHT22;849;48.780;9.216;2022-09-09T00:15:05;18.00;99.90
1704;DHT22;849;48.780;9.216;2022-09-09T00:17:39;17.80;99.90
1704;DHT22;849;48.780;9.216;2022-09-09T00:21:13;17.60;99.90
1704;DHT22;849;48.780;9.216;2022-09-09T00:23:17;17.60;99.90
1704;DHT22;849;48.780;9.216;2022-09-09T00:26:07;17.60;99.90
1704;DHT22;849;48.780;9.216;2022-09-09T00:31:18;17.70;99.90
1704;DHT22;849;48.780;9.216;2022-09-09T00:33:46;17.80;99.90
1704;DHT22;849;48.780;9.216;2022-09-09T00:36:16;17.80;99.90
1704;DHT22;849;48.780;9.216;2022-09-09T00:38:49;17.90;99.90
1704;DHT22;849;48.780;9.216;2022-09-09T00:41:50;18.00;99.90
1704;DHT22;849;48.780;9.216;2022-09-09T00:44:31;17.90;99.90
1704;DHT22;849;48.780;9.216;2022-09-09T00:55:48;18.00;99.90
1704;DHT22;849;48.780;9.216;2022-09-09T00:58:14;18.10;99.90
1704;DHT22;849;48.780;9.216;2022-09-09T01:00:52;18.20;99.90
1704;DHT22;849;48.780;9.216;2022-09-09T01:04:23;18.20;99.90
1704;DHT22;849;48.780;9.216;2022-09-09T01:06:23;18.20;99.90
1704;DHT22;849;48.780;9.216;2022-09-09T01:09:20;18.10;99.90
1704;DHT22;849;48.780;9.216;2022-09-09T01:14:48;18.00;99.90
1704;DHT22;849;48.780;9.216;2022-09-09T01:17:31;18.20;99.90
1704;DHT22;849;48.780;9.216;2022-09-09T01:28:29;18.30;99.90
1704;DHT22;849;48.780;9.216;2022-09-09T01:30:56;18.30;99.90
1704;DHT22;849;48.780;9.216;2022-09-09T01:33:23;18.30;99.90
1704;DHT22;849;48.780;9.216;2022-09-09T01:38:17;18.40;99.90
1704;DHT22;849;48.780;9.216;2022-09-09T01:40:43;18.20;99.90
1704;DHT22;849;48.780;9.216;2022-09-09T01:43:09;18.20;99.90
1704;DHT22;849;48.780;9.216;2022-09-09T01:45:35;18.30;99.90
1704;DHT22;849;48.780;9.216;2022-09-09T01:48:01;18.30;99.90
1704;DHT22;849;48.780;9.216;2022-09-09T01:50:28;18.10;99.90
1704;DHT22;849;48.780;9.216;2022-09-09T01:52:57;18.00;99.90
1704;DHT22;849;48.780;9.216;2022-09-09T01:55:32;18.00;99.90
1704;DHT22;849;48.780;9.216;2022-09-09T02:03:46;18.20;99.90
1704;DHT22;849;48.780;9.216;2022-09-09T02:08:49;18.00;99.90
1704;DHT22;849;48.780;9.216;2022-09-09T02:11:17;18.00;99.90
1704;DHT22;849;48.780;9.216;2022-09-09T02:13:46;17.90;99.90
1704;DHT22;849;48.780;9.216;2022-09-09T02:16:25;17.40;99.90
1704;DHT22;849;48.780;9.216;2022-09-09T02:21:35;17.50;99.90
1704;DHT22;849;48.780;9.216;2022-09-09T02:24:05;17.50;99.90
1704;DHT22;849;48.780;9.216;2022-09-09T02:26:34;17.50;99.90
1704;DHT22;849;48.780;9.216;2022-09-09T02:29:03;17.60;99.90
1704;DHT22;849;48.780;9.216;2022-09-09T02:31:30;17.60;99.90
1704;DHT22;849;48.780;9.216;2022-09-09T02:34:00;17.70;99.90
1704;DHT22;849;48.780;9.216;2022-09-09T02:36:30;17.70;99.90
1704;DHT22;849;48.780;9.216;2022-09-09T02:38:59;17.60;99.90
1704;DHT22;849;48.780;9.216;2022-09-09T02:41:32;17.70;99.90
1704;DHT22;849;48.780;9.216;2022-09-09T02:43:59;17.50;99.90
1704;DHT22;849;48.780;9.216;2022-09-09T02:46:47;17.50;99.90
1704;DHT22;849;48.780;9.216;2022-09-09T02:55:17;17.30;99.90
1704;DHT22;849;48.780;9.216;2022-09-09T02:57:47;17.20;99.90
1704;DHT22;849;48.780;9.216;2022-09-09T03:00:13;17.30;99.90
1704;DHT22;849;48.780;9.216;2022-09-09T03:02:40;17.40;99.90
1704;DHT22;849;48.780;9.216;2022-09-09T03:05:06;17.40;99.90
1704;DHT22;849;48.780;9.216;2022-09-09T03:07:32;17.40;99.90
1704;DHT22;849;48.780;9.216;2022-09-09T03:09:58;17.30;99.90
1704;DHT22;849;48.780;9.216;2022-09-09T03:12:24;17.30;99.90
1704;DHT22;849;48.780;9.216;2022-09-09T03:14:49;17.40;99.90
1704;DHT22;849;48.780;9.216;2022-09-09T03:17:15;17.30;99.90
1704;DHT22;849;48.780;9.216;2022-09-09T03:19:41;17.40;99.90
1704;DHT22;849;48.780;9.216;2022-09-09T03:22:09;17.40;99.90
1704;DHT22;849;48.780;9.216;2022-09-09T03:24:35;17.40;99.90
1704;DHT22;849;48.780;9.216;2022-09-09T03:27:01;17.40;99.90
1704;DHT22;849;48.780;9.216;2022-09-09T03:29:26;17.40;99.90
1704;DHT22;849;48.780;9.216;2022-09-09T03:31:52;17.30;99.90
1704;DHT22;849;48.780;9.216;2022-09-09T03:34:18;17.40;99.90
1704;DHT22;849;48.780;9.216;2022-09-09T03:36:44;17.30;99.90
1704;DHT22;849;48.780;9.216;2022-09-09T03:39:09;17.30;99.90
1704;DHT22;849;48.780;9.216;2022-09-09T03:41:36;17.30;99.90
1704;DHT22;849;48.780;9.216;2022-09-09T03:44:02;17.40;99.90
1704;DHT22;849;48.780;9.216;2022-09-09T03:46:28;17.50;99.90
1704;DHT22;849;48.780;9.216;2022-09-09T03:48:53;17.50;99.90
1704;DHT22;849;48.780;9.216;2022-09-09T03:51:19;17.50;99.90
1704;DHT22;849;48.780;9.216;2022-09-09T03:53:46;17.30;99.90
1704;DHT22;849;48.780;9.216;2022-09-09T03:56:12;17.40;99.90
1704;DHT22;849;48.780;9.216;2022-09-09T03:58:38;17.20;99.90
1704;DHT22;849;48.780;9.216;2022-09-09T04:01:09;17.40;99.90
1704;DHT22;849;48.780;9.216;2022-09-09T04:03:35;17.40;99.90
1704;DHT22;849;48.780;9.216;2022-09-09T04:06:03;17.30;99.90
1704;DHT22;849;48.780;9.216;2022-09-09T04:08:29;17.70;99.90
1704;DHT22;849;48.780;9.216;2022-09-09T04:10:58;17.60;99.90
1704;DHT22;849;48.780;9.216;2022-09-09T04:13:27;17.50;99.90
1704;DHT22;849;48.780;9.216;2022-09-09T04:15:54;17.60;99.90
1704;DHT22;849;48.780;9.216;2022-09-09T04:18:21;17.70;99.90
1704;DHT22;849;48.780;9.216;2022-09-09T04:20:51;17.80;99.90
1704;DHT22;849;48.780;9.216;2022-09-09T04:23:18;18.00;99.90
1704;DHT22;849;48.780;9.216;2022-09-09T04:25:49;18.20;99.90
1704;DHT22;849;48.780;9.216;2022-09-09T04:28:16;18.20;99.90
1704;DHT22;849;48.780;9.216;2022-09-09T04:30:43;18.20;99.90
1704;DHT22;849;48.780;9.216;2022-09-09T04:33:09;18.00;99.90
1704;DHT22;849;48.780;9.216;2022-09-09T04:35:36;17.90;99.90
1704;DHT22;849;48.780;9.216;2022-09-09T04:38:02;17.90;99.90
1704;DHT22;849;48.780;9.216;2022-09-09T04:40:29;17.90;99.90
1704;DHT22;849;48.780;9.216;2022-09-09T04:42:57;17.80;99.90
1704;DHT22;849;48.780;9.216;2022-09-09T04:45:22;17.60;99.90
1704;DHT22;849;48.780;9.216;2022-09-09T04:47:48;17.30;99.90
1704;DHT22;849;48.780;9.216;2022-09-09T04:50:14;17.20;99.90
1704;DHT22;849;48.780;9.216;2022-09-09T04:52:41;17.10;99.90
1704;DHT22;849;48.780;9.216;2022-09-09T04:55:07;17.10;99.90
1704;DHT22;849;48.780;9.216;2022-09-09T04:57:34;17.20;99.90
1704;DHT22;849;48.780;9.216;2022-09-09T05:00:00;17.10;99.90
1704;DHT22;849;48.780;9.216;2022-09-09T05:02:26;17.60;99.90
1704;DHT22;849;48.780;9.216;2022-09-09T05:04:52;17.60;99.90
1704;DHT22;849;48.780;9.216;2022-09-09T05:07:18;17.80;99.90
1704;DHT22;849;48.780;9.216;2022-09-09T05:09:44;17.80;99.90
1704;DHT22;849;48.780;9.216;2022-09-09T05:12:11;17.90;99.90
1704;DHT22;849;48.780;9.216;2022-09-09T05:14:36;17.90;99.90
1704;DHT22;849;48.780;9.216;2022-09-09T05:17:03;18.00;99.90
1704;DHT22;849;48.780;9.216;2022-09-09T05:19:29;17.90;99.90
1704;DHT22;849;48.780;9.216;2022-09-09T05:21:56;17.90;99.90
1704;DHT22;849;48.780;9.216;2022-09-09T05:24:22;17.60;99.90
1704;DHT22;849;48.780;9.216;2022-09-09T05:26:51;17.70;99.90
1704;DHT22;849;48.780;9.216;2022-09-09T05:29:17;17.60;99.90
1704;DHT22;849;48.780;9.216;2022-09-09T05:31:45;17.70;99.90
1704;DHT22;849;48.780;9.216;2022-09-09T05:34:12;17.60;99.90
1704;DHT22;849;48.780;9.216;2022-09-09T05:36:38;17.60;99.90
1704;DHT22;849;48.780;9.216;2022-09-09T05:39:04;17.50;99.90
1704;DHT22;849;48.780;9.216;2022-09-09T05:41:29;17.40;99.90
1704;DHT22;849;48.780;9.216;2022-09-09T05:43:56;17.40;99.90
1704;DHT22;849;48.780;9.216;2022-09-09T05:46:24;17.70;99.90
1704;DHT22;849;48.780;9.216;2022-09-09T05:48:51;17.80;99.90
1704;DHT22;849;48.780;9.216;2022-09-09T05:51:19;17.90;99.90
1704;DHT22;849;48.780;9.216;2022-09-09T05:53:47;18.10;99.90
1704;DHT22;849;48.780;9.216;2022-09-09T05:56:16;18.10;99.90
1704;DHT22;849;48.780;9.216;2022-09-09T05:58:43;18.20;99.90
1704;DHT22;849;48.780;9.216;2022-09-09T06:01:13;18.30;99.90
1704;DHT22;849;48.780;9.216;2022-09-09T06:03:40;18.20;99.90
1704;DHT22;849;48.780;9.216;2022-09-09T06:06:08;18.30;99.90
1704;DHT22;849;48.780;9.216;2022-09-09T06:08:35;18.40;99.90
1704;DHT22;849;48.780;9.216;2022-09-09T06:11:06;18.40;99.90
1704;DHT22;849;48.780;9.216;2022-09-09T06:13:32;18.50;99.90
1704;DHT22;849;48.780;9.216;2022-09-09T06:15:58;18.40;99.90
1704;DHT22;849;48.780;9.216;2022-09-09T06:18:25;18.30;99.90
1704;DHT22;849;48.780;9.216;2022-09-09T06:21:02;18.40;99.90
1704;DHT22;849;48.780;9.216;2022-09-09T06:23:30;18.50;99.90
1704;DHT22;849;48.780;9.216;2022-09-09T06:28:58;18.70;99.90
1704;DHT22;849;48.780;9.216;2022-09-09T06:31:25;18.50;99.90
1704;DHT22;849;48.780;9.216;2022-09-09T06:33:53;18.50;99.90
1704;DHT22;849;48.780;9.216;2022-09-09T06:36:22;18.30;99.90
1704;DHT22;849;48.780;9.216;2022-09-09T06:38:48;18.30;99.90
1704;DHT22;849;48.780;9.216;2022-09-09T06:41:16;18.40;99.90
1704;DHT22;849;48.780;9.216;2022-09-09T06:43:42;18.40;99.90
1704;DHT22;849;48.780;9.216;2022-09-09T06:46:13;18.30;99.90
1704;DHT22;849;48.780;9.216;2022-09-09T06:48:40;18.30;99.90
1704;DHT22;849;48.780;9.216;2022-09-09T06:51:18;18.50;99.90
1704;DHT22;849;48.780;9.216;2022-09-09T06:53:46;18.80;99.90
1704;DHT22;849;48.780;9.216;2022-09-09T06:56:22;18.80;99.90
1704;DHT22;849;48.780;9.216;2022-09-09T06:58:52;18.70;99.90
1704;DHT22;849;48.780;9.216;2022-09-09T07:01:26;18.80;99.90
1704;DHT22;849;48.780;9.216;2022-09-09T07:03:54;18.80;99.90
1704;DHT22;849;48.780;9.216;2022-09-09T07:06:35;18.90;99.90
1704;DHT22;849;48.780;9.216;2022-09-09T07:09:09;19.30;99.90
1704;DHT22;849;48.780;9.216;2022-09-09T07:11:44;19.20;99.90
1704;DHT22;849;48.780;9.216;2022-09-09T07:14:10;19.30;99.90
1704;DHT22;849;48.780;9.216;2022-09-09T07:16:43;19.50;99.90
1704;DHT22;849;48.780;9.216;2022-09-09T07:19:10;19.70;99.90
1704;DHT22;849;48.780;9.216;2022-09-09T07:21:39;19.80;99.90
1704;DHT22;849;48.780;9.216;2022-09-09T07:24:05;19.80;99.90
1704;DHT22;849;48.780;9.216;2022-09-09T07:26:36;19.80;99.90
1704;DHT22;849;48.780;9.216;2022-09-09T07:29:03;19.60;99.90
1704;DHT22;849;48.780;9.216;2022-09-09T07:31:34;19.50;99.90
1704;DHT22;849;48.780;9.216;2022-09-09T07:34:03;19.70;99.90
1704;DHT22;849;48.780;9.216;2022-09-09T07:36:34;19.80;99.90
1704;DHT22;849;48.780;9.216;2022-09-09T07:39:11;19.80;99.90
1704;DHT22;849;48.780;9.216;2022-09-09T07:41:45;19.80;99.90
1704;DHT22;849;48.780;9.216;2022-09-09T07:44:17;20.10;99.90
1704;DHT22;849;48.780;9.216;2022-09-09T07:46:44;20.10;99.90
1704;DHT22;849;48.780;9.216;2022-09-09T07:49:10;20.20;99.90
1704;DHT22;849;48.780;9.216;2022-09-09T07:51:38;20.20;99.90
1704;DHT22;849;48.780;9.216;2022-09-09T07:54:07;20.20;99.90
1704;DHT22;849;48.780;9.216;2022-09-09T07:56:35;20.30;99.90
1704;DHT22;849;48.780;9.216;2022-09-09T07:59:01;20.20;99.90
1704;DHT22;849;48.780;9.216;2022-09-09T08:01:29;20.10;99.90
1704;DHT22;849;48.780;9.216;2022-09-09T08:03:58;20.30;99.90
1704;DHT22;849;48.780;9.216;2022-09-09T08:06:25;20.00;99.90
1704;DHT22;849;48.780;9.216;2022-09-09T08:08:52;20.10;99.90
1704;DHT22;849;48.780;9.216;2022-09-09T08:11:21;19.80;99.90
1704;DHT22;849;48.780;9.216;2022-09-09T08:13:49;19.70;99.90
1704;DHT22;849;48.780;9.216;2022-09-09T08:16:26;19.90;99.90
1704;DHT22;849;48.780;9.216;2022-09-09T08:18:53;20.00;99.90
1704;DHT22;849;48.780;9.216;2022-09-09T08:21:25;20.20;99.90
1704;DHT22;849;48.780;9.216;2022-09-09T08:23:54;20.20;99.90
1704;DHT22;849;48.780;9.216;2022-09-09T08:26:22;20.30;99.90
1704;DHT22;849;48.780;9.216;2022-09-09T08:28:53;20.50;99.90
1704;DHT22;849;48.780;9.216;2022-09-09T08:31:22;20.60;99.90
1704;DHT22;849;48.780;9.216;2022-09-09T08:33:48;20.90;99.90
1704;DHT22;849;48.780;9.216;2022-09-09T08:36:18;20.70;99.90
1704;DHT22;849;48.780;9.216;2022-09-09T08:38:51;20.60;99.90
1704;DHT22;849;48.780;9.216;2022-09-09T08:50:13;20.70;99.90
1704;DHT22;849;48.780;9.216;2022-09-09T08:53:11;20.80;99.90
1704;DHT22;849;48.780;9.216;2022-09-09T08:55:48;20.90;99.90
1704;DHT22;849;48.780;9.216;2022-09-09T08:58:16;20.80;99.90
1704;DHT22;849;48.780;9.216;2022-09-09T09:09:56;21.60;99.90
1704;DHT22;849;48.780;9.216;2022-09-09T09:12:28;21.40;99.90
1704;DHT22;849;48.780;9.216;2022-09-09T09:14:55;21.30;99.50
1704;DHT22;849;48.780;9.216;2022-09-09T09:17:26;21.10;99.00
1704;DHT22;849;48.780;9.216;2022-09-09T09:19:53;21.10;98.50
1704;DHT22;849;48.780;9.216;2022-09-09T09:22:21;21.10;99.10
1704;DHT22;849;48.780;9.216;2022-09-09T09:25:03;21.30;99.30
1704;DHT22;849;48.780;9.216;2022-09-09T09:27:46;21.50;97.20
1704;DHT22;849;48.780;9.216;2022-09-09T09:30:17;21.60;97.70
1704;DHT22;849;48.780;9.216;2022-09-09T09:35:22;21.40;99.90
1704;DHT22;849;48.780;9.216;2022-09-09T09:37:49;21.50;99.90
1704;DHT22;849;48.780;9.216;2022-09-09T09:40:20;21.50;99.90
1704;DHT22;849;48.780;9.216;2022-09-09T09:42:55;21.20;99.90
1704;DHT22;849;48.780;9.216;2022-09-09T09:45:32;21.00;99.90
1704;DHT22;849;48.780;9.216;2022-09-09T09:48:04;21.00;99.90
1704;DHT22;849;48.780;9.216;2022-09-09T09:50:31;21.00;99.90
1704;DHT22;849;48.780;9.216;2022-09-09T09:53:02;20.70;99.90
1704;DHT22;849;48.780;9.216;2022-09-09T09:55:31;20.20;99.90
1704;DHT22;849;48.780;9.216;2022-09-09T09:58:04;20.30;99.90
1704;DHT22;849;48.780;9.216;2022-09-09T10:00:30;20.30;99.90
1704;DHT22;849;48.780;9.216;2022-09-09T10:02:56;20.50;99.90
1704;DHT22;849;48.780;9.216;2022-09-09T10:05:27;20.70;99.90
1704;DHT22;849;48.780;9.216;2022-09-09T10:08:20;20.60;99.90
1704;DHT22;849;48.780;9.216;2022-09-09T10:19:31;20.50;99.90
1704;DHT22;849;48.780;9.216;2022-09-09T10:25:16;20.30;99.90
1704;DHT22;849;48.780;9.216;2022-09-09T10:28:18;20.50;99.90
1704;DHT22;849;48.780;9.216;2022-09-09T10:36:27;21.80;99.90
1704;DHT22;849;48.780;9.216;2022-09-09T10:39:05;21.90;99.90
1704;DHT22;849;48.780;9.216;2022-09-09T10:42:01;22.20;99.90
1704;DHT22;849;48.780;9.216;2022-09-09T10:50:18;22.00;99.90
1704;DHT22;849;48.780;9.216;2022-09-09T10:53:08;22.10;99.90
1704;DHT22;849;48.780;9.216;2022-09-09T10:55:59;22.30;99.90
1704;DHT22;849;48.780;9.216;2022-09-09T10:58:35;22.10;99.90
1704;DHT22;849;48.780;9.216;2022-09-09T11:01:19;22.30;99.90
1704;DHT22;849;48.780;9.216;2022-09-09T11:04:02;22.70;99.90
1704;DHT22;849;48.780;9.216;2022-09-09T11:06:34;22.50;99.90
1704;DHT22;849;48.780;9.216;2022-09-09T11:09:02;22.90;99.90
1704;DHT22;849;48.780;9.216;2022-09-09T11:11:42;22.90;99.90
1704;DHT22;849;48.780;9.216;2022-09-09T11:21:49;23.00;98.50
1704;DHT22;849;48.780;9.216;2022-09-09T11:26:58;23.00;98.10
1704;DHT22;849;48.780;9.216;2022-09-09T11:29:40;22.50;93.80
1704;DHT22;849;48.780;9.216;2022-09-09T11:32:20;22.50;92.30
1704;DHT22;849;48.780;9.216;2022-09-09T11:38:07;22.00;86.20
1704;DHT22;849;48.780;9.216;2022-09-09T11:40:38;22.00;87.10
1704;DHT22;849;48.780;9.216;2022-09-09T11:45:33;21.40;91.10
1704;DHT22;849;48.780;9.216;2022-09-09T11:48:02;21.60;91.10
1704;DHT22;849;48.780;9.216;2022-09-09T11:50:30;21.80;91.20
1704;DHT22;849;48.780;9.216;2022-09-09T11:53:18;21.70;90.20
1704;DHT22;849;48.780;9.216;2022-09-09T11:55:46;21.20;90.90
1704;DHT22;849;48.780;9.216;2022-09-09T12:00:42;21.30;90.50
1704;DHT22;849;48.780;9.216;2022-09-09T12:05:55;21.10;91.80
1704;DHT22;849;48.780;9.216;2022-09-09T12:08:27;21.50;91.00
1704;DHT22;849;48.780;9.216;2022-09-09T12:10:56;21.80;90.20
1704;DHT22;849;48.780;9.216;2022-09-09T12:13:25;21.70;89.80
1704;DHT22;849;48.780;9.216;2022-09-09T12:15:56;21.40;88.40
1704;DHT22;849;48.780;9.216;2022-09-09T12:18:36;21.30;90.00
1704;DHT22;849;48.780;9.216;2022-09-09T12:23:55;21.50;86.60
1704;DHT22;849;48.780;9.216;2022-09-09T12:34:28;20.90;87.20
1704;DHT22;849;48.780;9.216;2022-09-09T12:37:02;21.20;87.50
1704;DHT22;849;48.780;9.216;2022-09-09T12:41:58;21.80;84.30
1704;DHT22;849;48.780;9.216;2022-09-09T12:44:26;21.80;79.10
1704;DHT22;849;48.780;9.216;2022-09-09T12:46:56;21.90;77.50
1704;DHT22;849;48.780;9.216;2022-09-09T12:49:33;22.10;78.70
1704;DHT22;849;48.780;9.216;2022-09-09T12:52:23;22.30;75.10
1704;DHT22;849;48.780;9.216;2022-09-09T12:54:52;22.20;76.70
1704;DHT22;849;48.780;9.216;2022-09-09T12:57:20;22.20;77.70
1704;DHT22;849;48.780;9.216;2022-09-09T12:59:47;21.90;78.60
1704;DHT22;849;48.780;9.216;2022-09-09T13:02:22;22.30;82.20
1704;DHT22;849;48.780;9.216;2022-09-09T13:04:48;22.70;82.30
1704;DHT22;849;48.780;9.216;2022-09-09T13:07:17;22.60;79.00
1704;DHT22;849;48.780;9.216;2022-09-09T13:09:44;22.40;80.50
1704;DHT22;849;48.780;9.216;2022-09-09T13:12:18;22.10;82.10
1704;DHT22;849;48.780;9.216;2022-09-09T13:14:46;22.20;80.50
1704;DHT22;849;48.780;9.216;2022-09-09T13:17:25;22.30;80.00
1704;DHT22;849;48.780;9.216;2022-09-09T13:19:52;22.20;79.80
1704;DHT22;849;48.780;9.216;2022-09-09T13:22:34;21.90;80.70
1704;DHT22;849;48.780;9.216;2022-09-09T13:28:21;22.50;78.10
1704;DHT22;849;48.780;9.216;2022-09-09T13:30:39;23.10;80.20
1704;DHT22;849;48.780;9.216;2022-09-09T13:35:51;23.50;77.80
1704;DHT22;849;48.780;9.216;2022-09-09T13:38:18;23.50;77.00
1704;DHT22;849;48.780;9.216;2022-09-09T13:41:02;23.30;75.70
1704;DHT22;849;48.780;9.216;2022-09-09T13:43:31;23.10;75.90
1704;DHT22;849;48.780;9.216;2022-09-09T13:46:01;23.00;75.40
1704;DHT22;849;48.780;9.216;2022-09-09T13:48:27;23.20;75.00
1704;DHT22;849;48.780;9.216;2022-09-09T13:51:02;23.00;73.30
1704;DHT22;849;48.780;9.216;2022-09-09T13:53:29;23.00;73.10
1704;DHT22;849;48.780;9.216;2022-09-09T13:55:56;23.00;73.60
1704;DHT22;849;48.780;9.216;2022-09-09T13:58:23;23.40;73.30
1704;DHT22;849;48.780;9.216;2022-09-09T14:00:51;23.30;71.80
1704;DHT22;849;48.780;9.216;2022-09-09T14:03:16;23.20;72.60
1704;DHT22;849;48.780;9.216;2022-09-09T14:05:44;23.10;73.80
1704;DHT22;849;48.780;9.216;2022-09-09T14:08:16;23.40;74.90
1704;DHT22;849;48.780;9.216;2022-09-09T14:10:43;23.60;71.70
1704;DHT22;849;48.780;9.216;2022-09-09T14:13:08;23.60;70.80
1704;DHT22;849;48.780;9.216;2022-09-09T14:15:34;23.50;71.60
1704;DHT22;849;48.780;9.216;2022-09-09T14:18:00;23.20;70.70
1704;DHT22;849;48.780;9.216;2022-09-09T14:20:25;23.30;70.90
1704;DHT22;849;48.780;9.216;2022-09-09T14:22:51;23.60;71.20
1704;DHT22;849;48.780;9.216;2022-09-09T14:25:18;23.90;69.80
1704;DHT22;849;48.780;9.216;2022-09-09T14:27:44;24.00;69.50
1704;DHT22;849;48.780;9.216;2022-09-09T14:30:11;23.80;67.90
1704;DHT22;849;48.780;9.216;2022-09-09T14:32:37;23.30;68.70
1704;DHT22;849;48.780;9.216;2022-09-09T14:35:03;23.30;68.70
1704;DHT22;849;48.780;9.216;2022-09-09T14:37:29;23.70;69.50
1704;DHT22;849;48.780;9.216;2022-09-09T14:39:57;23.60;67.00
1704;DHT22;849;48.780;9.216;2022-09-09T14:42:22;24.00;66.80
1704;DHT22;849;48.780;9.216;2022-09-09T14:44:48;24.40;65.10
1704;DHT22;849;48.780;9.216;2022-09-09T14:47:14;24.30;63.20
1704;DHT22;849;48.780;9.216;2022-09-09T14:49:40;23.70;63.30
1704;DHT22;849;48.780;9.216;2022-09-09T14:52:05;23.70;63.60
1704;DHT22;849;48.780;9.216;2022-09-09T14:54:32;23.70;63.60
1704;DHT22;849;48.780;9.216;2022-09-09T14:56:58;24.20;65.20
1704;DHT22;849;48.780;9.216;2022-09-09T14:59:24;26.50;60.30
1704;DHT22;849;48.780;9.216;2022-09-09T15:01:50;29.70;55.00
1704;DHT22;849;48.780;9.216;2022-09-09T15:04:15;29.70;51.20
1704;DHT22;849;48.780;9.216;2022-09-09T15:06:42;28.80;51.60
1704;DHT22;849;48.780;9.216;2022-09-09T15:09:10;28.80;51.60
1704;DHT22;849;48.780;9.216;2022-09-09T15:11:37;30.00;50.00
1704;DHT22;849;48.780;9.216;2022-09-09T15:14:04;30.70;47.70
1704;DHT22;849;48.780;9.216;2022-09-09T15:16:30;30.60;47.40
1704;DHT22;849;48.780;9.216;2022-09-09T15:18:59;30.50;46.50
1704;DHT22;849;48.780;9.216;2022-09-09T15:21:27;29.00;48.40
1704;DHT22;849;48.780;9.216;2022-09-09T15:23:54;27.90;49.10
1704;DHT22;849;48.780;9.216;2022-09-09T15:26:19;26.80;51.40
1704;DHT22;849;48.780;9.216;2022-09-09T15:28:47;25.90;52.80
1704;DHT22;849;48.780;9.216;2022-09-09T15:31:16;25.10;54.20
1704;DHT22;849;48.780;9.216;2022-09-09T15:33:56;24.50;55.00
1704;DHT22;849;48.780;9.216;2022-09-09T15:36:36;24.30;55.90
1704;DHT22;849;48.780;9.216;2022-09-09T15:39:04;24.50;56.50
1704;DHT22;849;48.780;9.216;2022-09-09T15:41:31;24.70;55.70
1704;DHT22;849;48.780;9.216;2022-09-09T15:43:57;24.80;57.00
1704;DHT22;849;48.780;9.216;2022-09-09T15:49:05;24.60;56.30
1704;DHT22;849;48.780;9.216;2022-09-09T15:51:31;24.30;56.90
1704;DHT22;849;48.780;9.216;2022-09-09T15:53:58;23.70;57.20
1704;DHT22;849;48.780;9.216;2022-09-09T15:56:26;23.40;57.80
1704;DHT22;849;48.780;9.216;2022-09-09T15:58:53;23.50;58.10
1704;DHT22;849;48.780;9.216;2022-09-09T16:01:19;23.40;58.80
1704;DHT22;849;48.780;9.216;2022-09-09T16:03:45;23.50;58.10
1704;DHT22;849;48.780;9.216;2022-09-09T16:06:17;23.50;58.60
1704;DHT22;849;48.780;9.216;2022-09-09T16:08:45;23.40;58.10
1704;DHT22;849;48.780;9.216;2022-09-09T16:11:15;23.10;57.80
1704;DHT22;849;48.780;9.216;2022-09-09T16:13:42;23.00;58.10
1704;DHT22;849;48.780;9.216;2022-09-09T16:16:10;22.90;58.30
1704;DHT22;849;48.780;9.216;2022-09-09T16:18:39;22.60;58.30
1704;DHT22;849;48.780;9.216;2022-09-09T16:21:06;22.60;58.50
1704;DHT22;849;48.780;9.216;2022-09-09T16:23:34;22.50;59.10
1704;DHT22;849;48.780;9.216;2022-09-09T16:26:01;22.40;58.80
1704;DHT22;849;48.780;9.216;2022-09-09T16:28:27;22.50;59.00
1704;DHT22;849;48.780;9.216;2022-09-09T16:30:53;22.50;59.50
1704;DHT22;849;48.780;9.216;2022-09-09T16:33:19;22.60;59.20
1704;DHT22;849;48.780;9.216;2022-09-09T16:35:45;22.40;59.60
1704;DHT22;849;48.780;9.216;2022-09-09T16:38:11;22.40;60.30
1704;DHT22;849;48.780;9.216;2022-09-09T16:40:37;22.60;60.60
1704;DHT22;849;48.780;9.216;2022-09-09T16:43:04;22.40;61.10
1704;DHT22;849;48.780;9.216;2022-09-09T16:45:31;22.10;63.30
1704;DHT22;849;48.780;9.216;2022-09-09T16:47:58;21.80;64.20
1704;DHT22;849;48.780;9.216;2022-09-09T16:50:23;21.80;65.30
1704;DHT22;849;48.780;9.216;2022-09-09T16:52:51;21.50;65.50
1704;DHT22;849;48.780;9.216;2022-09-09T16:55:17;21.50;67.10
1704;DHT22;849;48.780;9.216;2022-09-09T16:57:43;21.60;65.50
1704;DHT22;849;48.780;9.216;2022-09-09T17:00:09;21.40;63.40
1704;DHT22;849;48.780;9.216;2022-09-09T17:02:35;21.10;64.30
1704;DHT22;849;48.780;9.216;2022-09-09T17:05:00;21.10;64.90
1704;DHT22;849;48.780;9.216;2022-09-09T17:07:26;21.30;65.00
1704;DHT22;849;48.780;9.216;2022-09-09T17:09:52;21.50;65.10
1704;DHT22;849;48.780;9.216;2022-09-09T17:12:19;21.70;64.80
1704;DHT22;849;48.780;9.216;2022-09-09T17:14:45;21.90;64.60
1704;DHT22;849;48.780;9.216;2022-09-09T17:17:11;21.90;63.80
1704;DHT22;849;48.780;9.216;2022-09-09T17:19:36;22.00;64.50
1704;DHT22;849;48.780;9.216;2022-09-09T17:22:02;22.10;64.50
1704;DHT22;849;48.780;9.216;2022-09-09T17:24:28;22.10;64.30
1704;DHT22;849;48.780;9.216;2022-09-09T17:26:54;21.70;65.30
1704;DHT22;849;48.780;9.216;2022-09-09T17:29:21;21.70;65.70
1704;DHT22;849;48.780;9.216;2022-09-09T17:31:46;21.80;66.70
1704;DHT22;849;48.780;9.216;2022-09-09T17:34:12;21.50;66.70
1704;DHT22;849;48.780;9.216;2022-09-09T17:36:38;21.60;67.70
1704;DHT22;849;48.780;9.216;2022-09-09T17:39:05;21.70;67.20
1704;DHT22;849;48.780;9.216;2022-09-09T17:41:37;21.70;67.90
1704;DHT22;849;48.780;9.216;2022-09-09T17:44:04;21.70;69.20
1704;DHT22;849;48.780;9.216;2022-09-09T17:46:36;21.70;70.30
1704;DHT22;849;48.780;9.216;2022-09-09T17:49:14;21.60;70.50
1704;DHT22;849;48.780;9.216;2022-09-09T17:51:41;21.50;72.20
1704;DHT22;849;48.780;9.216;2022-09-09T17:54:13;21.40;71.60
1704;DHT22;849;48.780;9.216;2022-09-09T17:56:40;21.10;71.80
1704;DHT22;849;48.780;9.216;2022-09-09T17:59:11;21.20;73.00
1704;DHT22;849;48.780;9.216;2022-09-09T18:01:40;21.20;72.80
1704;DHT22;849;48.780;9.216;2022-09-09T18:04:08;21.10;72.50
1704;DHT22;849;48.780;9.216;2022-09-09T18:06:37;21.00;73.20
1704;DHT22;849;48.780;9.216;2022-09-09T18:09:05;20.90;73.70
1704;DHT22;849;48.780;9.216;2022-09-09T18:11:35;20.90;74.60
1704;DHT22;849;48.780;9.216;2022-09-09T18:14:04;20.80;74.80
1704;DHT22;849;48.780;9.216;2022-09-09T18:16:32;20.70;75.70
1704;DHT22;849;48.780;9.216;2022-09-09T18:19:05;20.80;75.90
1704;DHT22;849;48.780;9.216;2022-09-09T18:21:32;20.90;76.30
1704;DHT22;849;48.780;9.216;2022-09-09T18:23:59;20.90;76.50
1704;DHT22;849;48.780;9.216;2022-09-09T18:26:26;20.80;77.40
1704;DHT22;849;48.780;9.216;2022-09-09T18:28:54;20.90;77.50
1704;DHT22;849;48.780;9.216;2022-09-09T18:31:23;20.80;76.80
1704;DHT22;849;48.780;9.216;2022-09-09T18:33:49;20.90;77.70
1704;DHT22;849;48.780;9.216;2022-09-09T18:36:17;21.00;79.10
1704;DHT22;849;48.780;9.216;2022-09-09T18:38:43;21.10;78.90
1704;DHT22;849;48.780;9.216;2022-09-09T18:43:50;21.00;78.50
1704;DHT22;849;48.780;9.216;2022-09-09T18:46:17;21.00;79.00
1704;DHT22;849;48.780;9.216;2022-09-09T18:48:43;20.90;79.40
1704;DHT22;849;48.780;9.216;2022-09-09T18:51:11;20.90;79.90
1704;DHT22;849;48.780;9.216;2022-09-09T18:53:38;20.90;79.90